
<gpx xmlns="http://www.topografix.com/GPX/1/1" xmlns:gpxx="http://www.garmin.com/xmlschemas/GpxExtensions/v3" xmlns:xsi="http://www.w3.org/2001/XMLSchema-instance" version="1.1" creator="Adze - https://getadze.com/" xsi:schemaLocation="http://www.topografix.com/GPX/1/1 http://www.topografix.com/GPX/1/1/gpx.xsd http://www.garmin.com/xmlschemas/GpxExtensions/v3 http://www.garmin.com/xmlschemas/GpxExtensionsv3.xsd">
    <metadata>
        <name>Untitled Document</name>
        <link href="http://www.garmin.com"></link>
        <time>2018-03-08T10:37:25.457Z</time>
    </metadata>
    <wpt lon="100.974850" lat="12.903748">
        <name>Horseshoe Point</name>
        <sym>Lodging</sym>
        <extensions>
            <gpxx:WaypointExtension xmlns:gpxx="http://www.garmin.com/xmlschemas/GpxExtensions/v3">
                <gpxx:DisplayMode>SymbolOnly</gpxx:DisplayMode>
            </gpxx:WaypointExtension>
        </extensions>
    </wpt>
    <wpt lon="100.981956" lat="12.951957">
        <ele>58.826400</ele>
        <name>March 2011 - Sunday water</name>
        <cmt>27-MAR-11 11:00:43</cmt>
        <desc>27-MAR-11 11:00:43</desc>
        <sym>Drinking Water</sym>
        <extensions>
            <gpxx:WaypointExtension xmlns:gpxx="http://www.garmin.com/xmlschemas/GpxExtensions/v3">
                <gpxx:DisplayMode>SymbolOnly</gpxx:DisplayMode>
            </gpxx:WaypointExtension>
        </extensions>
    </wpt>
    <trk>
        <name>March 2011 - Sunday</name>
        <extensions>
            <gpxx:TrackExtension xmlns:gpxx="http://www.garmin.com/xmlschemas/GpxExtensions/v3">
                <gpxx:DisplayColor>Green</gpxx:DisplayColor>
            </gpxx:TrackExtension>
        </extensions>
        <trkseg>
            <trkpt lon="100.974562" lat="12.906080">
                <ele>71.755493</ele>
                <time>2011-03-27T02:59:54Z</time>
            </trkpt>
            <trkpt lon="100.974841" lat="12.905865">
                <ele>70.794190</ele>
                <time>2011-03-27T03:00:09Z</time>
            </trkpt>
            <trkpt lon="100.975286" lat="12.905591">
                <ele>64.545654</ele>
                <time>2011-03-27T03:00:32Z</time>
            </trkpt>
            <trkpt lon="100.975049" lat="12.904868">
                <ele>66.468262</ele>
                <time>2011-03-27T03:00:55Z</time>
            </trkpt>
            <trkpt lon="100.976431" lat="12.904649">
                <ele>65.507080</ele>
                <time>2011-03-27T03:01:31Z</time>
            </trkpt>
            <trkpt lon="100.976480" lat="12.904451">
                <ele>65.026367</ele>
                <time>2011-03-27T03:01:37Z</time>
            </trkpt>
            <trkpt lon="100.977277" lat="12.904229">
                <ele>65.987671</ele>
                <time>2011-03-27T03:01:59Z</time>
            </trkpt>
            <trkpt lon="100.977901" lat="12.904388">
                <ele>66.468262</ele>
                <time>2011-03-27T03:02:16Z</time>
            </trkpt>
            <trkpt lon="100.978546" lat="12.905249">
                <ele>66.948975</ele>
                <time>2011-03-27T03:02:43Z</time>
            </trkpt>
            <trkpt lon="100.979164" lat="12.906256">
                <ele>64.065063</ele>
                <time>2011-03-27T03:03:13Z</time>
            </trkpt>
            <trkpt lon="100.979718" lat="12.904670">
                <ele>69.352295</ele>
                <time>2011-03-27T03:03:58Z</time>
            </trkpt>
            <trkpt lon="100.980070" lat="12.903547">
                <ele>70.313477</ele>
                <time>2011-03-27T03:04:23Z</time>
            </trkpt>
            <trkpt lon="100.981692" lat="12.903623">
                <ele>78.004028</ele>
                <time>2011-03-27T03:05:20Z</time>
            </trkpt>
            <trkpt lon="100.982355" lat="12.903687">
                <ele>79.446045</ele>
                <time>2011-03-27T03:05:42Z</time>
            </trkpt>
            <trkpt lon="100.982807" lat="12.902984">
                <ele>75.600830</ele>
                <time>2011-03-27T03:06:09Z</time>
            </trkpt>
            <trkpt lon="100.983033" lat="12.902900">
                <ele>76.081421</ele>
                <time>2011-03-27T03:06:15Z</time>
            </trkpt>
            <trkpt lon="100.984332" lat="12.903498">
                <ele>71.274902</ele>
                <time>2011-03-27T03:06:46Z</time>
            </trkpt>
            <trkpt lon="100.985224" lat="12.904477">
                <ele>70.313477</ele>
                <time>2011-03-27T03:07:18Z</time>
            </trkpt>
            <trkpt lon="100.985751" lat="12.904227">
                <ele>72.236206</ele>
                <time>2011-03-27T03:07:33Z</time>
            </trkpt>
            <trkpt lon="100.985803" lat="12.905400">
                <ele>68.871582</ele>
                <time>2011-03-27T03:08:13Z</time>
            </trkpt>
            <trkpt lon="100.986736" lat="12.906648">
                <ele>65.987671</ele>
                <time>2011-03-27T03:09:04Z</time>
            </trkpt>
            <trkpt lon="100.988089" lat="12.908924">
                <ele>69.832886</ele>
                <time>2011-03-27T03:10:18Z</time>
            </trkpt>
            <trkpt lon="100.990326" lat="12.912346">
                <ele>72.716919</ele>
                <time>2011-03-27T03:12:03Z</time>
            </trkpt>
            <trkpt lon="100.991390" lat="12.913902">
                <ele>72.236206</ele>
                <time>2011-03-27T03:12:45Z</time>
            </trkpt>
            <trkpt lon="100.989233" lat="12.916603">
                <ele>78.004028</ele>
                <time>2011-03-27T03:14:30Z</time>
            </trkpt>
            <trkpt lon="100.989637" lat="12.916825">
                <ele>82.810791</ele>
                <time>2011-03-27T03:14:45Z</time>
            </trkpt>
            <trkpt lon="100.990992" lat="12.917398">
                <ele>87.136597</ele>
                <time>2011-03-27T03:15:22Z</time>
            </trkpt>
            <trkpt lon="100.992309" lat="12.918122">
                <ele>86.656006</ele>
                <time>2011-03-27T03:15:53Z</time>
            </trkpt>
            <trkpt lon="100.991749" lat="12.919128">
                <ele>86.175293</ele>
                <time>2011-03-27T03:16:26Z</time>
            </trkpt>
            <trkpt lon="100.991893" lat="12.919579">
                <ele>86.175293</ele>
                <time>2011-03-27T03:16:39Z</time>
            </trkpt>
            <trkpt lon="100.993086" lat="12.920119">
                <ele>89.539917</ele>
                <time>2011-03-27T03:17:13Z</time>
            </trkpt>
            <trkpt lon="100.993413" lat="12.920322">
                <ele>88.578735</ele>
                <time>2011-03-27T03:17:22Z</time>
            </trkpt>
            <trkpt lon="100.993887" lat="12.921095">
                <ele>86.656006</ele>
                <time>2011-03-27T03:17:42Z</time>
            </trkpt>
            <trkpt lon="100.995067" lat="12.921899">
                <ele>86.656006</ele>
                <time>2011-03-27T03:18:15Z</time>
            </trkpt>
            <trkpt lon="100.995339" lat="12.921840">
                <ele>87.136597</ele>
                <time>2011-03-27T03:18:23Z</time>
            </trkpt>
            <trkpt lon="100.995759" lat="12.921456">
                <ele>89.539917</ele>
                <time>2011-03-27T03:18:40Z</time>
            </trkpt>
            <trkpt lon="100.996970" lat="12.920489">
                <ele>91.462524</ele>
                <time>2011-03-27T03:19:23Z</time>
            </trkpt>
            <trkpt lon="100.998177" lat="12.920586">
                <ele>94.827148</ele>
                <time>2011-03-27T03:19:58Z</time>
            </trkpt>
            <trkpt lon="100.998550" lat="12.920774">
                <ele>95.788452</ele>
                <time>2011-03-27T03:20:16Z</time>
            </trkpt>
            <trkpt lon="100.999773" lat="12.921799">
                <ele>92.423950</ele>
                <time>2011-03-27T03:25:40Z</time>
            </trkpt>
            <trkpt lon="100.999798" lat="12.922230">
                <ele>93.385132</ele>
                <time>2011-03-27T03:26:53Z</time>
            </trkpt>
            <trkpt lon="100.999818" lat="12.922646">
                <ele>91.943237</ele>
                <time>2011-03-27T03:27:08Z</time>
            </trkpt>
            <trkpt lon="101.000117" lat="12.923112">
                <ele>90.981934</ele>
                <time>2011-03-27T03:27:24Z</time>
            </trkpt>
            <trkpt lon="101.000384" lat="12.923186">
                <ele>90.981934</ele>
                <time>2011-03-27T03:27:35Z</time>
            </trkpt>
            <trkpt lon="101.000965" lat="12.922910">
                <ele>94.346558</ele>
                <time>2011-03-27T03:28:31Z</time>
            </trkpt>
            <trkpt lon="101.001073" lat="12.922765">
                <ele>93.385132</ele>
                <time>2011-03-27T03:28:39Z</time>
            </trkpt>
            <trkpt lon="101.001574" lat="12.922821">
                <ele>93.865845</ele>
                <time>2011-03-27T03:28:55Z</time>
            </trkpt>
            <trkpt lon="101.001988" lat="12.923037">
                <ele>94.827148</ele>
                <time>2011-03-27T03:29:09Z</time>
            </trkpt>
            <trkpt lon="101.002639" lat="12.923413">
                <ele>92.904541</ele>
                <time>2011-03-27T03:29:32Z</time>
            </trkpt>
            <trkpt lon="101.002799" lat="12.923641">
                <ele>91.462524</ele>
                <time>2011-03-27T03:29:41Z</time>
            </trkpt>
            <trkpt lon="101.002715" lat="12.924094">
                <ele>90.020630</ele>
                <time>2011-03-27T03:29:59Z</time>
            </trkpt>
            <trkpt lon="101.002898" lat="12.924595">
                <ele>96.749878</ele>
                <time>2011-03-27T03:32:13Z</time>
            </trkpt>
            <trkpt lon="101.002918" lat="12.924710">
                <ele>91.462524</ele>
                <time>2011-03-27T03:32:32Z</time>
            </trkpt>
            <trkpt lon="101.002616" lat="12.925121">
                <ele>89.539917</ele>
                <time>2011-03-27T03:36:05Z</time>
            </trkpt>
            <trkpt lon="101.002872" lat="12.925348">
                <ele>88.578735</ele>
                <time>2011-03-27T03:36:52Z</time>
            </trkpt>
            <trkpt lon="101.002432" lat="12.925813">
                <ele>87.617188</ele>
                <time>2011-03-27T03:37:14Z</time>
            </trkpt>
            <trkpt lon="101.002374" lat="12.926029">
                <ele>91.462524</ele>
                <time>2011-03-27T03:37:43Z</time>
            </trkpt>
            <trkpt lon="101.002244" lat="12.926210">
                <ele>87.617188</ele>
                <time>2011-03-27T03:37:58Z</time>
            </trkpt>
            <trkpt lon="101.001628" lat="12.926869">
                <ele>88.098022</ele>
                <time>2011-03-27T03:38:25Z</time>
            </trkpt>
            <trkpt lon="101.001764" lat="12.927643">
                <ele>96.269287</ele>
                <time>2011-03-27T03:38:59Z</time>
            </trkpt>
            <trkpt lon="101.001848" lat="12.928950">
                <ele>101.075684</ele>
                <time>2011-03-27T03:39:51Z</time>
            </trkpt>
            <trkpt lon="101.001831" lat="12.929219">
                <ele>101.556397</ele>
                <time>2011-03-27T03:40:06Z</time>
            </trkpt>
            <trkpt lon="101.001590" lat="12.929550">
                <ele>102.998291</ele>
                <time>2011-03-27T03:40:22Z</time>
            </trkpt>
            <trkpt lon="101.000056" lat="12.932028">
                <ele>94.346558</ele>
                <time>2011-03-27T03:41:33Z</time>
            </trkpt>
            <trkpt lon="100.999576" lat="12.932593">
                <ele>90.981934</ele>
                <time>2011-03-27T03:41:51Z</time>
            </trkpt>
            <trkpt lon="100.998503" lat="12.932474">
                <ele>87.136597</ele>
                <time>2011-03-27T03:42:11Z</time>
            </trkpt>
            <trkpt lon="100.997533" lat="12.932681">
                <ele>83.771973</ele>
                <time>2011-03-27T03:42:25Z</time>
            </trkpt>
            <trkpt lon="100.996732" lat="12.932690">
                <ele>80.888184</ele>
                <time>2011-03-27T03:42:49Z</time>
            </trkpt>
            <trkpt lon="100.997607" lat="12.932711">
                <ele>82.330078</ele>
                <time>2011-03-27T03:43:17Z</time>
            </trkpt>
            <trkpt lon="100.997640" lat="12.932820">
                <ele>82.330078</ele>
                <time>2011-03-27T03:43:21Z</time>
            </trkpt>
            <trkpt lon="100.997275" lat="12.934172">
                <ele>78.965454</ele>
                <time>2011-03-27T03:44:08Z</time>
            </trkpt>
            <trkpt lon="100.997072" lat="12.934379">
                <ele>80.407471</ele>
                <time>2011-03-27T03:44:25Z</time>
            </trkpt>
            <trkpt lon="100.996988" lat="12.934200">
                <ele>78.965454</ele>
                <time>2011-03-27T03:44:34Z</time>
            </trkpt>
            <trkpt lon="100.996825" lat="12.934273">
                <ele>78.484741</ele>
                <time>2011-03-27T03:44:44Z</time>
            </trkpt>
            <trkpt lon="100.996569" lat="12.934780">
                <ele>78.484741</ele>
                <time>2011-03-27T03:45:20Z</time>
            </trkpt>
            <trkpt lon="100.996573" lat="12.934978">
                <ele>78.004028</ele>
                <time>2011-03-27T03:45:45Z</time>
            </trkpt>
            <trkpt lon="100.995696" lat="12.935865">
                <ele>78.004028</ele>
                <time>2011-03-27T03:46:52Z</time>
            </trkpt>
            <trkpt lon="100.994792" lat="12.936151">
                <ele>82.330078</ele>
                <time>2011-03-27T03:48:35Z</time>
            </trkpt>
            <trkpt lon="100.994279" lat="12.936581">
                <ele>78.004028</ele>
                <time>2011-03-27T03:49:28Z</time>
            </trkpt>
            <trkpt lon="100.994119" lat="12.936456">
                <ele>76.562134</ele>
                <time>2011-03-27T03:49:36Z</time>
            </trkpt>
            <trkpt lon="100.993583" lat="12.936468">
                <ele>74.639526</ele>
                <time>2011-03-27T03:49:50Z</time>
            </trkpt>
            <trkpt lon="100.993168" lat="12.936617">
                <ele>74.639526</ele>
                <time>2011-03-27T03:50:02Z</time>
            </trkpt>
            <trkpt lon="100.993418" lat="12.937302">
                <ele>69.352295</ele>
                <time>2011-03-27T03:50:27Z</time>
            </trkpt>
            <trkpt lon="100.992928" lat="12.937722">
                <ele>70.313477</ele>
                <time>2011-03-27T03:51:28Z</time>
            </trkpt>
            <trkpt lon="100.992380" lat="12.938331">
                <ele>66.468262</ele>
                <time>2011-03-27T03:51:59Z</time>
            </trkpt>
            <trkpt lon="100.992019" lat="12.938822">
                <ele>65.507080</ele>
                <time>2011-03-27T03:52:39Z</time>
            </trkpt>
            <trkpt lon="100.992116" lat="12.938991">
                <ele>65.026367</ele>
                <time>2011-03-27T03:52:55Z</time>
            </trkpt>
            <trkpt lon="100.991894" lat="12.939293">
                <ele>64.545654</ele>
                <time>2011-03-27T03:53:06Z</time>
            </trkpt>
            <trkpt lon="100.990228" lat="12.940297">
                <ele>61.661743</ele>
                <time>2011-03-27T03:53:52Z</time>
            </trkpt>
            <trkpt lon="100.989356" lat="12.940627">
                <ele>60.219727</ele>
                <time>2011-03-27T03:54:13Z</time>
            </trkpt>
            <trkpt lon="100.989204" lat="12.941007">
                <ele>58.777710</ele>
                <time>2011-03-27T03:54:22Z</time>
            </trkpt>
            <trkpt lon="100.989284" lat="12.941477">
                <ele>59.258423</ele>
                <time>2011-03-27T03:54:32Z</time>
            </trkpt>
            <trkpt lon="100.989732" lat="12.942067">
                <ele>58.777710</ele>
                <time>2011-03-27T03:54:46Z</time>
            </trkpt>
            <trkpt lon="100.990116" lat="12.943061">
                <ele>56.374512</ele>
                <time>2011-03-27T03:55:06Z</time>
            </trkpt>
            <trkpt lon="100.990187" lat="12.943772">
                <ele>62.622925</ele>
                <time>2011-03-27T03:55:25Z</time>
            </trkpt>
            <trkpt lon="100.990018" lat="12.944233">
                <ele>67.429688</ele>
                <time>2011-03-27T03:55:39Z</time>
            </trkpt>
            <trkpt lon="100.989943" lat="12.944335">
                <ele>67.910278</ele>
                <time>2011-03-27T03:55:42Z</time>
            </trkpt>
            <trkpt lon="100.988664" lat="12.944659">
                <ele>67.429688</ele>
                <time>2011-03-27T03:56:08Z</time>
            </trkpt>
            <trkpt lon="100.988136" lat="12.944784">
                <ele>65.026367</ele>
                <time>2011-03-27T03:56:19Z</time>
            </trkpt>
            <trkpt lon="100.987377" lat="12.945952">
                <ele>59.739136</ele>
                <time>2011-03-27T03:56:49Z</time>
            </trkpt>
            <trkpt lon="100.986026" lat="12.946850">
                <ele>61.661743</ele>
                <time>2011-03-27T03:57:31Z</time>
            </trkpt>
            <trkpt lon="100.985652" lat="12.947323">
                <ele>65.026367</ele>
                <time>2011-03-27T03:57:51Z</time>
            </trkpt>
            <trkpt lon="100.985468" lat="12.947855">
                <ele>67.429688</ele>
                <time>2011-03-27T03:58:07Z</time>
            </trkpt>
            <trkpt lon="100.984558" lat="12.949638">
                <ele>70.313477</ele>
                <time>2011-03-27T03:58:53Z</time>
            </trkpt>
            <trkpt lon="100.984380" lat="12.950231">
                <ele>67.429688</ele>
                <time>2011-03-27T03:59:06Z</time>
            </trkpt>
            <trkpt lon="100.982919" lat="12.951748">
                <ele>58.777710</ele>
                <time>2011-03-27T03:59:46Z</time>
            </trkpt>
            <trkpt lon="100.982364" lat="12.952216">
                <ele>58.777710</ele>
                <time>2011-03-27T04:00:03Z</time>
            </trkpt>
            <trkpt lon="100.981906" lat="12.951943">
                <ele>58.777710</ele>
                <time>2011-03-27T04:00:28Z</time>
            </trkpt>
            <trkpt lon="100.981999" lat="12.951914">
                <ele>63.584351</ele>
                <time>2011-03-27T04:16:49Z</time>
            </trkpt>
            <trkpt lon="100.982294" lat="12.952311">
                <ele>59.258423</ele>
                <time>2011-03-27T04:17:20Z</time>
            </trkpt>
            <trkpt lon="100.981650" lat="12.953165">
                <ele>55.893799</ele>
                <time>2011-03-27T04:17:46Z</time>
            </trkpt>
            <trkpt lon="100.981262" lat="12.953276">
                <ele>55.893799</ele>
                <time>2011-03-27T04:17:54Z</time>
            </trkpt>
            <trkpt lon="100.981344" lat="12.954654">
                <ele>52.529175</ele>
                <time>2011-03-27T04:18:20Z</time>
            </trkpt>
            <trkpt lon="100.980973" lat="12.954958">
                <ele>52.048584</ele>
                <time>2011-03-27T04:18:30Z</time>
            </trkpt>
            <trkpt lon="100.980086" lat="12.954987">
                <ele>51.087158</ele>
                <time>2011-03-27T04:18:46Z</time>
            </trkpt>
            <trkpt lon="100.979714" lat="12.955339">
                <ele>52.048584</ele>
                <time>2011-03-27T04:18:59Z</time>
            </trkpt>
            <trkpt lon="100.978802" lat="12.955724">
                <ele>54.451782</ele>
                <time>2011-03-27T04:19:29Z</time>
            </trkpt>
            <trkpt lon="100.977567" lat="12.956755">
                <ele>60.700317</ele>
                <time>2011-03-27T04:20:22Z</time>
            </trkpt>
            <trkpt lon="100.977554" lat="12.956760">
                <ele>60.700317</ele>
                <time>2011-03-27T04:20:23Z</time>
            </trkpt>
            <trkpt lon="100.975734" lat="12.954779">
                <ele>57.816528</ele>
                <time>2011-03-27T04:21:12Z</time>
            </trkpt>
            <trkpt lon="100.975237" lat="12.954480">
                <ele>60.700317</ele>
                <time>2011-03-27T04:21:23Z</time>
            </trkpt>
            <trkpt lon="100.973348" lat="12.955051">
                <ele>67.910278</ele>
                <time>2011-03-27T04:22:18Z</time>
            </trkpt>
            <trkpt lon="100.972343" lat="12.955448">
                <ele>65.987671</ele>
                <time>2011-03-27T04:22:39Z</time>
            </trkpt>
            <trkpt lon="100.971230" lat="12.956047">
                <ele>59.258423</ele>
                <time>2011-03-27T04:22:56Z</time>
            </trkpt>
            <trkpt lon="100.967697" lat="12.958111">
                <ele>54.932373</ele>
                <time>2011-03-27T04:24:04Z</time>
            </trkpt>
            <trkpt lon="100.963905" lat="12.960640">
                <ele>55.893799</ele>
                <time>2011-03-27T04:25:46Z</time>
            </trkpt>
            <trkpt lon="100.961663" lat="12.962397">
                <ele>49.164551</ele>
                <time>2011-03-27T04:26:30Z</time>
            </trkpt>
            <trkpt lon="100.959876" lat="12.963244">
                <ele>46.280640</ele>
                <time>2011-03-27T04:27:00Z</time>
            </trkpt>
            <trkpt lon="100.959802" lat="12.963058">
                <ele>47.241821</ele>
                <time>2011-03-27T04:27:11Z</time>
            </trkpt>
            <trkpt lon="100.959401" lat="12.962433">
                <ele>48.683960</ele>
                <time>2011-03-27T04:27:32Z</time>
            </trkpt>
            <trkpt lon="100.959125" lat="12.961651">
                <ele>47.722534</ele>
                <time>2011-03-27T04:27:56Z</time>
            </trkpt>
            <trkpt lon="100.959671" lat="12.961287">
                <ele>49.164551</ele>
                <time>2011-03-27T04:28:25Z</time>
            </trkpt>
            <trkpt lon="100.959554" lat="12.960858">
                <ele>51.087158</ele>
                <time>2011-03-27T04:28:41Z</time>
            </trkpt>
            <trkpt lon="100.959459" lat="12.960446">
                <ele>51.087158</ele>
                <time>2011-03-27T04:28:57Z</time>
            </trkpt>
            <trkpt lon="100.958735" lat="12.960392">
                <ele>47.722534</ele>
                <time>2011-03-27T04:29:15Z</time>
            </trkpt>
            <trkpt lon="100.957919" lat="12.959991">
                <ele>45.319214</ele>
                <time>2011-03-27T04:29:32Z</time>
            </trkpt>
            <trkpt lon="100.957251" lat="12.959803">
                <ele>40.512817</ele>
                <time>2011-03-27T04:29:47Z</time>
            </trkpt>
            <trkpt lon="100.957108" lat="12.959541">
                <ele>40.032105</ele>
                <time>2011-03-27T04:29:59Z</time>
            </trkpt>
            <trkpt lon="100.957094" lat="12.957531">
                <ele>41.473999</ele>
                <time>2011-03-27T04:30:51Z</time>
            </trkpt>
            <trkpt lon="100.957307" lat="12.956801">
                <ele>41.473999</ele>
                <time>2011-03-27T04:31:12Z</time>
            </trkpt>
            <trkpt lon="100.957460" lat="12.955774">
                <ele>40.032105</ele>
                <time>2011-03-27T04:31:37Z</time>
            </trkpt>
            <trkpt lon="100.957401" lat="12.955075">
                <ele>40.993408</ele>
                <time>2011-03-27T04:31:56Z</time>
            </trkpt>
            <trkpt lon="100.957451" lat="12.954385">
                <ele>39.551269</ele>
                <time>2011-03-27T04:32:19Z</time>
            </trkpt>
            <trkpt lon="100.958354" lat="12.953118">
                <ele>39.551269</ele>
                <time>2011-03-27T04:33:07Z</time>
            </trkpt>
            <trkpt lon="100.958561" lat="12.952586">
                <ele>38.590088</ele>
                <time>2011-03-27T04:33:34Z</time>
            </trkpt>
            <trkpt lon="100.958595" lat="12.951891">
                <ele>39.070679</ele>
                <time>2011-03-27T04:34:13Z</time>
            </trkpt>
            <trkpt lon="100.958450" lat="12.951838">
                <ele>36.667481</ele>
                <time>2011-03-27T04:34:39Z</time>
            </trkpt>
            <trkpt lon="100.958477" lat="12.951505">
                <ele>37.628662</ele>
                <time>2011-03-27T04:35:09Z</time>
            </trkpt>
            <trkpt lon="100.957418" lat="12.951436">
                <ele>38.109375</ele>
                <time>2011-03-27T04:40:36Z</time>
            </trkpt>
            <trkpt lon="100.955472" lat="12.952408">
                <ele>37.628662</ele>
                <time>2011-03-27T04:42:02Z</time>
            </trkpt>
            <trkpt lon="100.954771" lat="12.952558">
                <ele>38.590088</ele>
                <time>2011-03-27T04:42:18Z</time>
            </trkpt>
            <trkpt lon="100.954723" lat="12.952568">
                <ele>38.590088</ele>
                <time>2011-03-27T04:42:19Z</time>
            </trkpt>
            <trkpt lon="100.953645" lat="12.952801">
                <ele>30.899536</ele>
                <time>2011-03-27T04:42:42Z</time>
            </trkpt>
            <trkpt lon="100.952490" lat="12.951949">
                <ele>38.109375</ele>
                <time>2011-03-27T04:43:13Z</time>
            </trkpt>
            <trkpt lon="100.951960" lat="12.951839">
                <ele>39.070679</ele>
                <time>2011-03-27T04:43:24Z</time>
            </trkpt>
            <trkpt lon="100.951056" lat="12.950937">
                <ele>41.954712</ele>
                <time>2011-03-27T04:43:57Z</time>
            </trkpt>
            <trkpt lon="100.950400" lat="12.949897">
                <ele>39.070679</ele>
                <time>2011-03-27T04:44:17Z</time>
            </trkpt>
            <trkpt lon="100.951458" lat="12.949130">
                <ele>40.032105</ele>
                <time>2011-03-27T04:44:56Z</time>
            </trkpt>
            <trkpt lon="100.951963" lat="12.948442">
                <ele>42.435425</ele>
                <time>2011-03-27T04:45:23Z</time>
            </trkpt>
            <trkpt lon="100.952883" lat="12.948189">
                <ele>45.799927</ele>
                <time>2011-03-27T04:45:55Z</time>
            </trkpt>
            <trkpt lon="100.953247" lat="12.947938">
                <ele>47.241821</ele>
                <time>2011-03-27T04:46:09Z</time>
            </trkpt>
            <trkpt lon="100.953597" lat="12.947968">
                <ele>48.683960</ele>
                <time>2011-03-27T04:46:21Z</time>
            </trkpt>
            <trkpt lon="100.954276" lat="12.947853">
                <ele>49.164551</ele>
                <time>2011-03-27T04:46:43Z</time>
            </trkpt>
            <trkpt lon="100.954306" lat="12.947672">
                <ele>49.645264</ele>
                <time>2011-03-27T04:46:49Z</time>
            </trkpt>
            <trkpt lon="100.954382" lat="12.947372">
                <ele>49.164551</ele>
                <time>2011-03-27T04:47:01Z</time>
            </trkpt>
            <trkpt lon="100.955076" lat="12.947264">
                <ele>49.645264</ele>
                <time>2011-03-27T04:47:19Z</time>
            </trkpt>
            <trkpt lon="100.955829" lat="12.947596">
                <ele>52.048584</ele>
                <time>2011-03-27T04:47:41Z</time>
            </trkpt>
            <trkpt lon="100.956141" lat="12.947750">
                <ele>52.529175</ele>
                <time>2011-03-27T04:47:57Z</time>
            </trkpt>
            <trkpt lon="100.956350" lat="12.948084">
                <ele>52.048584</ele>
                <time>2011-03-27T04:48:11Z</time>
            </trkpt>
            <trkpt lon="100.956586" lat="12.948221">
                <ele>52.048584</ele>
                <time>2011-03-27T04:48:23Z</time>
            </trkpt>
            <trkpt lon="100.957431" lat="12.947232">
                <ele>51.567871</ele>
                <time>2011-03-27T04:49:03Z</time>
            </trkpt>
            <trkpt lon="100.957848" lat="12.947430">
                <ele>52.048584</ele>
                <time>2011-03-27T04:49:29Z</time>
            </trkpt>
            <trkpt lon="100.958753" lat="12.946428">
                <ele>52.529175</ele>
                <time>2011-03-27T04:50:09Z</time>
            </trkpt>
            <trkpt lon="100.960670" lat="12.945627">
                <ele>54.932373</ele>
                <time>2011-03-27T04:51:02Z</time>
            </trkpt>
            <trkpt lon="100.960874" lat="12.945502">
                <ele>54.932373</ele>
                <time>2011-03-27T04:51:15Z</time>
            </trkpt>
            <trkpt lon="100.961808" lat="12.945973">
                <ele>60.700317</ele>
                <time>2011-03-27T04:51:57Z</time>
            </trkpt>
            <trkpt lon="100.961699" lat="12.945150">
                <ele>64.065063</ele>
                <time>2011-03-27T04:52:51Z</time>
            </trkpt>
            <trkpt lon="100.961547" lat="12.944354">
                <ele>62.622925</ele>
                <time>2011-03-27T04:53:27Z</time>
            </trkpt>
            <trkpt lon="100.960592" lat="12.944057">
                <ele>59.739136</ele>
                <time>2011-03-27T04:54:04Z</time>
            </trkpt>
            <trkpt lon="100.959498" lat="12.943924">
                <ele>56.855103</ele>
                <time>2011-03-27T04:54:40Z</time>
            </trkpt>
            <trkpt lon="100.959705" lat="12.942856">
                <ele>53.971191</ele>
                <time>2011-03-27T04:55:20Z</time>
            </trkpt>
            <trkpt lon="100.959689" lat="12.942092">
                <ele>52.048584</ele>
                <time>2011-03-27T04:56:43Z</time>
            </trkpt>
            <trkpt lon="100.959208" lat="12.941861">
                <ele>50.606567</ele>
                <time>2011-03-27T04:56:59Z</time>
            </trkpt>
            <trkpt lon="100.959707" lat="12.942080">
                <ele>50.606567</ele>
                <time>2011-03-27T04:57:25Z</time>
            </trkpt>
            <trkpt lon="100.959907" lat="12.941811">
                <ele>50.606567</ele>
                <time>2011-03-27T04:57:37Z</time>
            </trkpt>
            <trkpt lon="100.960190" lat="12.941210">
                <ele>48.683960</ele>
                <time>2011-03-27T04:57:56Z</time>
            </trkpt>
            <trkpt lon="100.960035" lat="12.941142">
                <ele>47.722534</ele>
                <time>2011-03-27T04:58:02Z</time>
            </trkpt>
            <trkpt lon="100.959949" lat="12.940889">
                <ele>48.683960</ele>
                <time>2011-03-27T04:58:11Z</time>
            </trkpt>
            <trkpt lon="100.958821" lat="12.940783">
                <ele>53.009766</ele>
                <time>2011-03-27T04:58:37Z</time>
            </trkpt>
            <trkpt lon="100.957875" lat="12.940865">
                <ele>48.683960</ele>
                <time>2011-03-27T04:58:56Z</time>
            </trkpt>
            <trkpt lon="100.957682" lat="12.940486">
                <ele>46.761231</ele>
                <time>2011-03-27T04:59:05Z</time>
            </trkpt>
            <trkpt lon="100.956871" lat="12.940536">
                <ele>44.358032</ele>
                <time>2011-03-27T04:59:20Z</time>
            </trkpt>
            <trkpt lon="100.957218" lat="12.943389">
                <ele>47.241821</ele>
                <time>2011-03-27T05:00:52Z</time>
            </trkpt>
            <trkpt lon="100.957181" lat="12.943791">
                <ele>47.722534</ele>
                <time>2011-03-27T05:01:08Z</time>
            </trkpt>
            <trkpt lon="100.956801" lat="12.943712">
                <ele>47.722534</ele>
                <time>2011-03-27T05:01:35Z</time>
            </trkpt>
            <trkpt lon="100.956313" lat="12.943525">
                <ele>45.799927</ele>
                <time>2011-03-27T05:01:49Z</time>
            </trkpt>
            <trkpt lon="100.955698" lat="12.938400">
                <ele>37.628662</ele>
                <time>2011-03-27T05:03:16Z</time>
            </trkpt>
            <trkpt lon="100.955467" lat="12.938226">
                <ele>37.628662</ele>
                <time>2011-03-27T05:03:24Z</time>
            </trkpt>
            <trkpt lon="100.953230" lat="12.938526">
                <ele>31.860718</ele>
                <time>2011-03-27T05:04:05Z</time>
            </trkpt>
            <trkpt lon="100.953182" lat="12.938365">
                <ele>31.380127</ele>
                <time>2011-03-27T05:04:10Z</time>
            </trkpt>
            <trkpt lon="100.953675" lat="12.936220">
                <ele>28.976929</ele>
                <time>2011-03-27T05:04:51Z</time>
            </trkpt>
            <trkpt lon="100.953778" lat="12.935065">
                <ele>28.496216</ele>
                <time>2011-03-27T05:05:11Z</time>
            </trkpt>
            <trkpt lon="100.953652" lat="12.933958">
                <ele>28.015503</ele>
                <time>2011-03-27T05:05:31Z</time>
            </trkpt>
            <trkpt lon="100.952777" lat="12.932803">
                <ele>28.015503</ele>
                <time>2011-03-27T05:05:55Z</time>
            </trkpt>
            <trkpt lon="100.952236" lat="12.931670">
                <ele>28.496216</ele>
                <time>2011-03-27T05:06:16Z</time>
            </trkpt>
            <trkpt lon="100.952112" lat="12.929668">
                <ele>30.418823</ele>
                <time>2011-03-27T05:06:58Z</time>
            </trkpt>
            <trkpt lon="100.952814" lat="12.929502">
                <ele>29.457520</ele>
                <time>2011-03-27T05:07:18Z</time>
            </trkpt>
            <trkpt lon="100.953437" lat="12.929181">
                <ele>28.976929</ele>
                <time>2011-03-27T05:07:35Z</time>
            </trkpt>
            <trkpt lon="100.953616" lat="12.928913">
                <ele>29.457520</ele>
                <time>2011-03-27T05:07:43Z</time>
            </trkpt>
            <trkpt lon="100.955328" lat="12.928584">
                <ele>37.628662</ele>
                <time>2011-03-27T05:08:33Z</time>
            </trkpt>
            <trkpt lon="100.956234" lat="12.928483">
                <ele>36.186768</ele>
                <time>2011-03-27T05:09:04Z</time>
            </trkpt>
            <trkpt lon="100.956009" lat="12.924111">
                <ele>40.512817</ele>
                <time>2011-03-27T05:11:09Z</time>
            </trkpt>
            <trkpt lon="100.956079" lat="12.922698">
                <ele>44.358032</ele>
                <time>2011-03-27T05:12:01Z</time>
            </trkpt>
            <trkpt lon="100.956153" lat="12.922261">
                <ele>44.838623</ele>
                <time>2011-03-27T05:12:16Z</time>
            </trkpt>
            <trkpt lon="100.956355" lat="12.922058">
                <ele>44.838623</ele>
                <time>2011-03-27T05:12:25Z</time>
            </trkpt>
            <trkpt lon="100.956271" lat="12.921112">
                <ele>52.529175</ele>
                <time>2011-03-27T05:13:01Z</time>
            </trkpt>
            <trkpt lon="100.956319" lat="12.920470">
                <ele>53.490479</ele>
                <time>2011-03-27T05:13:20Z</time>
            </trkpt>
            <trkpt lon="100.956148" lat="12.918810">
                <ele>53.971191</ele>
                <time>2011-03-27T05:14:12Z</time>
            </trkpt>
            <trkpt lon="100.955555" lat="12.916115">
                <ele>58.297119</ele>
                <time>2011-03-27T05:15:16Z</time>
            </trkpt>
            <trkpt lon="100.955383" lat="12.915673">
                <ele>57.335815</ele>
                <time>2011-03-27T05:15:26Z</time>
            </trkpt>
            <trkpt lon="100.954816" lat="12.914928">
                <ele>57.335815</ele>
                <time>2011-03-27T05:15:46Z</time>
            </trkpt>
            <trkpt lon="100.956389" lat="12.915294">
                <ele>55.413086</ele>
                <time>2011-03-27T05:16:25Z</time>
            </trkpt>
            <trkpt lon="100.957127" lat="12.914875">
                <ele>54.451782</ele>
                <time>2011-03-27T05:16:42Z</time>
            </trkpt>
            <trkpt lon="100.957802" lat="12.914432">
                <ele>50.606567</ele>
                <time>2011-03-27T05:16:58Z</time>
            </trkpt>
            <trkpt lon="100.959256" lat="12.913705">
                <ele>45.319214</ele>
                <time>2011-03-27T05:17:39Z</time>
            </trkpt>
            <trkpt lon="100.960069" lat="12.914363">
                <ele>48.203369</ele>
                <time>2011-03-27T05:18:07Z</time>
            </trkpt>
            <trkpt lon="100.960690" lat="12.914267">
                <ele>49.164551</ele>
                <time>2011-03-27T05:18:22Z</time>
            </trkpt>
            <trkpt lon="100.963041" lat="12.913879">
                <ele>50.125977</ele>
                <time>2011-03-27T05:19:19Z</time>
            </trkpt>
            <trkpt lon="100.963505" lat="12.913397">
                <ele>51.087158</ele>
                <time>2011-03-27T05:19:36Z</time>
            </trkpt>
            <trkpt lon="100.965700" lat="12.912749">
                <ele>50.125977</ele>
                <time>2011-03-27T05:20:17Z</time>
            </trkpt>
            <trkpt lon="100.966645" lat="12.912611">
                <ele>50.606567</ele>
                <time>2011-03-27T05:20:33Z</time>
            </trkpt>
            <trkpt lon="100.968019" lat="12.912661">
                <ele>50.606567</ele>
                <time>2011-03-27T05:21:00Z</time>
            </trkpt>
            <trkpt lon="100.968575" lat="12.912417">
                <ele>52.048584</ele>
                <time>2011-03-27T05:21:14Z</time>
            </trkpt>
            <trkpt lon="100.969915" lat="12.912391">
                <ele>52.529175</ele>
                <time>2011-03-27T05:21:50Z</time>
            </trkpt>
            <trkpt lon="100.970117" lat="12.912406">
                <ele>52.529175</ele>
                <time>2011-03-27T05:21:54Z</time>
            </trkpt>
            <trkpt lon="100.970417" lat="12.912330">
                <ele>52.048584</ele>
                <time>2011-03-27T05:22:00Z</time>
            </trkpt>
            <trkpt lon="100.971296" lat="12.911725">
                <ele>51.087158</ele>
                <time>2011-03-27T05:22:21Z</time>
            </trkpt>
            <trkpt lon="100.971529" lat="12.911173">
                <ele>52.529175</ele>
                <time>2011-03-27T05:22:34Z</time>
            </trkpt>
            <trkpt lon="100.972031" lat="12.910556">
                <ele>53.490479</ele>
                <time>2011-03-27T05:22:52Z</time>
            </trkpt>
            <trkpt lon="100.972799" lat="12.909920">
                <ele>55.413086</ele>
                <time>2011-03-27T05:23:15Z</time>
            </trkpt>
            <trkpt lon="100.972478" lat="12.908983">
                <ele>59.258423</ele>
                <time>2011-03-27T05:23:44Z</time>
            </trkpt>
            <trkpt lon="100.972433" lat="12.908449">
                <ele>58.777710</ele>
                <time>2011-03-27T05:24:00Z</time>
            </trkpt>
            <trkpt lon="100.972150" lat="12.907930">
                <ele>61.181030</ele>
                <time>2011-03-27T05:24:17Z</time>
            </trkpt>
            <trkpt lon="100.971974" lat="12.906903">
                <ele>61.661743</ele>
                <time>2011-03-27T05:24:50Z</time>
            </trkpt>
            <trkpt lon="100.972349" lat="12.906746">
                <ele>65.026367</ele>
                <time>2011-03-27T05:25:03Z</time>
            </trkpt>
            <trkpt lon="100.972780" lat="12.906398">
                <ele>65.507080</ele>
                <time>2011-03-27T05:25:18Z</time>
            </trkpt>
            <trkpt lon="100.972830" lat="12.906081">
                <ele>66.468262</ele>
                <time>2011-03-27T05:25:29Z</time>
            </trkpt>
            <trkpt lon="100.973410" lat="12.906011">
                <ele>67.429688</ele>
                <time>2011-03-27T05:25:44Z</time>
            </trkpt>
            <trkpt lon="100.973533" lat="12.906334">
                <ele>66.948975</ele>
                <time>2011-03-27T05:25:54Z</time>
            </trkpt>
            <trkpt lon="100.973702" lat="12.906399">
                <ele>66.948975</ele>
                <time>2011-03-27T05:25:59Z</time>
            </trkpt>
            <trkpt lon="100.974326" lat="12.906324">
                <ele>66.948975</ele>
                <time>2011-03-27T05:26:14Z</time>
            </trkpt>
            <trkpt lon="100.974478" lat="12.906112">
                <ele>67.910278</ele>
                <time>2011-03-27T05:26:21Z</time>
            </trkpt>
            <trkpt lon="100.974355" lat="12.906318">
                <ele>68.871582</ele>
                <time>2011-03-27T05:26:29Z</time>
            </trkpt>
            <trkpt lon="100.974995" lat="12.905574">
                <ele>69.352295</ele>
                <time>2011-03-27T05:26:52Z</time>
            </trkpt>
        </trkseg>
    </trk>
</gpx>